createdAt,value
2019-04-06T00:03:17.832Z,53.73
2019-04-06T00:05:48.149Z,53.37
2019-04-06T00:08:18.185Z,56.80
2019-04-06T00:13:27.954Z,58.33
2019-04-06T00:15:58.006Z,54.53
2019-04-06T00:18:28.052Z,58.23
2019-04-06T00:23:37.437Z,54.30
2019-04-06T00:28:47.242Z,56.60
2019-04-06T00:31:17.273Z,54.60
2019-04-06T00:33:47.305Z,57.83
2019-04-06T00:38:56.980Z,58.60
2019-04-06T00:44:06.386Z,57.50
2019-04-06T00:49:16.095Z,62.23
2019-04-06T00:54:25.758Z,60.07
2019-04-06T00:59:35.189Z,56.73
2019-04-06T01:04:44.583Z,59.43
2019-04-06T01:09:53.982Z,60.83
2019-04-06T01:12:24.030Z,62.13
2019-04-06T01:14:54.059Z,61.97
2019-04-06T01:22:42.832Z,60.80
2019-04-06T01:27:52.537Z,63.23
2019-04-06T01:30:22.765Z,62.40
2019-04-06T01:32:52.814Z,62.60
2019-04-06T01:38:02.542Z,58.97
2019-04-06T01:40:32.554Z,63.63
2019-04-06T01:45:41.964Z,62.10
2019-04-06T01:48:12.305Z,65.03
2019-04-06T01:50:42.651Z,65.23
2019-04-06T01:53:12.717Z,64.53
2019-04-06T01:55:42.742Z,64.20
2019-04-06T02:00:52.443Z,62.33
2019-04-06T02:03:22.489Z,61.53
2019-04-06T02:11:11.544Z,62.53
2019-04-06T02:13:41.868Z,63.17
2019-04-06T02:18:51.640Z,64.53
2019-04-06T02:21:21.666Z,60.20
2019-04-06T02:23:51.694Z,62.60
2019-04-06T02:29:01.211Z,65.50
2019-04-06T02:31:31.176Z,63.43
2019-04-06T02:34:01.194Z,64.50
2019-04-06T02:39:10.936Z,62.13
2019-04-06T02:44:20.478Z,62.37
2019-04-06T02:49:29.781Z,60.93
2019-04-06T02:54:39.903Z,65.37
2019-04-06T02:59:49.533Z,58.47
2019-04-06T03:07:38.619Z,60.60
2019-04-06T03:10:09.134Z,57.40
2019-04-06T03:15:18.407Z,60.50
2019-04-06T03:20:28.175Z,59.70
2019-04-06T03:22:58.210Z,55.07
2019-04-06T03:28:07.609Z,56.97
2019-04-06T03:33:17.305Z,54.73
2019-04-06T03:35:49.349Z,53.17
2019-04-06T03:38:17.382Z,53.70
2019-04-06T03:43:27.077Z,53.80
2019-04-06T03:45:57.104Z,52.00
2019-04-06T03:48:27.143Z,49.57
2019-04-06T03:50:57.185Z,53.47
2019-04-06T03:53:27.537Z,49.53
2019-04-06T04:01:16.579Z,53.87
2019-04-06T04:03:46.617Z,53.33
2019-04-06T04:06:16.650Z,48.37
2019-04-06T04:11:26.061Z,53.37
2019-04-06T04:16:35.442Z,48.27
2019-04-06T04:21:45.139Z,51.47
2019-04-06T04:24:15.192Z,50.83
2019-04-06T04:29:24.929Z,50.27
2019-04-06T04:34:34.494Z,51.03
2019-04-06T04:37:04.531Z,50.70
2019-04-06T04:47:32.981Z,49.10
2019-04-06T04:50:03.505Z,46.30
2019-04-06T04:52:33.630Z,48.63
2019-04-06T04:57:45.067Z,46.33
2019-04-06T05:00:13.077Z,45.80
2019-04-06T05:05:22.788Z,49.43
2019-04-06T05:07:52.833Z,53.83
2019-04-06T05:10:23.210Z,56.23
2019-04-06T05:12:53.562Z,56.23
2019-04-06T05:20:42.288Z,54.67
2019-04-06T05:23:12.165Z,50.63
2019-04-06T05:25:42.562Z,48.57
2019-04-06T05:28:12.616Z,47.50
2019-04-06T05:33:22.023Z,44.13
2019-04-06T05:35:52.340Z,44.23
2019-04-06T05:38:22.650Z,42.40
2019-04-06T05:40:52.772Z,42.07
2019-04-06T05:43:22.817Z,41.10
2019-04-06T05:48:32.532Z,39.57
2019-04-06T05:51:02.708Z,42.27
2019-04-06T05:53:32.588Z,26.77
2019-04-06T05:56:02.632Z,42.07
2019-04-06T05:58:32.685Z,43.03
2019-04-06T06:01:04.102Z,41.47
2019-04-06T06:03:33.163Z,38.67
2019-04-06T06:08:42.554Z,38.10
2019-04-06T06:11:12.916Z,38.37
2019-04-06T06:13:43.242Z,36.87
2019-04-06T06:18:52.894Z,40.97
2019-04-06T06:24:02.290Z,39.90
2019-04-06T06:29:11.680Z,41.53
2019-04-06T06:34:21.056Z,38.30
2019-04-06T06:39:30.455Z,44.17
2019-04-06T06:44:40.086Z,44.00
2019-04-06T06:49:49.552Z,39.27
2019-04-06T06:52:19.576Z,43.27
2019-04-06T06:54:49.945Z,41.87
2019-04-06T06:57:20.008Z,41.00
2019-04-06T07:02:30.011Z,40.50
2019-04-06T07:05:00.346Z,42.07
2019-04-06T07:07:30.372Z,41.73
2019-04-06T07:10:05.948Z,44.60
2019-04-06T07:12:31.048Z,40.13
2019-04-06T07:15:01.086Z,40.17
2019-04-06T07:17:31.467Z,41.30
2019-04-06T07:20:01.626Z,41.00
2019-04-06T07:22:31.891Z,41.00
2019-04-06T07:25:01.957Z,41.37
2019-04-06T07:27:32.237Z,42.10
2019-04-06T07:30:02.293Z,40.67
2019-04-06T07:32:32.416Z,22.77
2019-04-06T07:35:02.457Z,37.73
2019-04-06T07:37:32.856Z,36.07
2019-04-06T07:42:42.766Z,40.37
2019-04-06T07:45:12.807Z,40.17
2019-04-06T07:47:43.130Z,41.30
2019-04-06T07:50:13.538Z,40.27
2019-04-06T07:52:43.879Z,40.10
2019-04-06T07:55:13.947Z,41.30
2019-04-06T07:57:44.327Z,38.80
2019-04-06T08:00:14.740Z,38.33
2019-04-06T08:02:44.911Z,39.60
2019-04-06T08:05:14.803Z,37.27
2019-04-06T08:07:45.177Z,40.73
2019-04-06T08:10:15.501Z,37.30
2019-04-06T08:12:45.547Z,36.30
2019-04-06T08:15:15.964Z,38.40
2019-04-06T08:17:46.012Z,38.33
2019-04-06T08:20:16.077Z,38.83
2019-04-06T08:22:46.080Z,37.77
2019-04-06T08:25:16.116Z,38.37
2019-04-06T08:27:46.421Z,35.73
2019-04-06T08:30:16.471Z,36.87
2019-04-06T08:32:46.527Z,36.30
2019-04-06T08:35:25.427Z,36.63
2019-04-06T08:37:46.614Z,35.23
2019-04-06T08:40:16.642Z,36.10
2019-04-06T08:42:46.965Z,34.30
2019-04-06T08:45:17.007Z,37.43
2019-04-06T08:47:47.076Z,36.00
2019-04-06T08:50:17.105Z,37.17
2019-04-06T08:52:47.596Z,36.97
2019-04-06T08:57:56.975Z,36.87
2019-04-06T09:00:26.934Z,39.07
2019-04-06T09:05:36.321Z,38.87
2019-04-06T09:08:06.787Z,35.43
2019-04-06T09:10:37.090Z,41.20
2019-04-06T09:13:07.132Z,40.63
2019-04-06T09:15:37.503Z,38.73
2019-04-06T09:18:07.533Z,39.57
2019-04-06T09:20:37.590Z,39.47
2019-04-06T09:23:07.623Z,39.97
2019-04-06T09:25:37.657Z,40.23
2019-04-06T09:28:08.165Z,40.77
2019-04-06T09:33:17.469Z,38.50
2019-04-06T09:35:47.924Z,41.33
2019-04-06T09:38:18.098Z,40.63
2019-04-06T09:40:50.960Z,39.13
2019-04-06T09:43:21.210Z,36.87
2019-04-06T09:45:51.617Z,38.67
2019-04-06T09:48:21.657Z,40.83
2019-04-06T09:50:51.770Z,38.67
2019-04-06T09:53:21.773Z,40.70
2019-04-06T09:55:51.858Z,40.30
2019-04-06T09:58:21.888Z,40.73
2019-04-06T10:06:11.311Z,39.37
2019-04-06T10:08:41.343Z,37.67
2019-04-06T10:11:11.740Z,38.73
2019-04-06T10:19:00.530Z,37.50
2019-04-06T10:21:30.841Z,35.97
2019-04-06T10:24:01.162Z,38.30
2019-04-06T10:26:31.225Z,37.57
2019-04-06T10:29:01.264Z,35.43
2019-04-06T10:31:31.587Z,37.85
2019-04-06T10:34:01.400Z,34.50
2019-04-06T10:36:32.151Z,33.13
2019-04-06T10:39:02.058Z,33.70
2019-04-06T10:41:32.113Z,33.50
2019-04-06T10:44:02.174Z,31.05
2019-04-06T10:46:32.222Z,32.00
2019-04-06T10:49:02.260Z,30.08
2019-04-06T10:51:32.696Z,29.27
2019-04-06T10:54:03.052Z,30.68
2019-04-06T10:56:32.770Z,29.20
2019-04-06T11:01:42.194Z,29.37
2019-04-06T11:09:31.373Z,24.35
2019-04-06T11:12:01.792Z,20.02
2019-04-06T11:14:32.179Z,16.77
2019-04-06T11:17:02.434Z,20.75
2019-04-06T11:19:32.765Z,21.87
2019-04-06T11:22:02.818Z,21.35
2019-04-06T11:24:32.858Z,23.87
2019-04-06T11:27:02.952Z,24.40
2019-04-06T11:29:32.994Z,20.50
2019-04-06T11:34:42.422Z,20.15
2019-04-06T11:37:12.797Z,20.80
2019-04-06T11:39:42.835Z,19.73
2019-04-06T11:44:52.867Z,19.67
2019-04-06T11:47:23.135Z,19.70
2019-04-06T11:57:51.824Z,16.15
2019-04-06T12:00:26.569Z,18.15
2019-04-06T12:05:31.633Z,19.17
2019-04-06T12:10:41.355Z,15.20
2019-04-06T12:21:09.827Z,17.75
2019-04-06T12:23:39.858Z,15.65
2019-04-06T12:26:09.913Z,15.48
2019-04-06T12:31:19.619Z,14.35
2019-04-06T12:33:49.965Z,16.00
2019-04-06T12:36:20.623Z,15.63
2019-04-06T12:41:30.702Z,15.32
2019-04-06T12:44:00.738Z,15.75
2019-04-06T12:46:31.043Z,17.45
2019-04-06T12:49:01.084Z,17.20
2019-04-06T12:51:31.140Z,17.48
2019-04-06T12:59:21.098Z,16.45
2019-04-06T13:01:51.318Z,18.60
2019-04-06T13:04:21.126Z,19.02
2019-04-06T13:09:30.884Z,16.82
2019-04-06T13:14:40.627Z,18.52
2019-04-06T13:19:50.676Z,16.12
2019-04-06T13:27:39.242Z,14.43
2019-04-06T13:30:09.606Z,13.22
2019-04-06T13:32:39.358Z,13.22
2019-04-06T13:35:09.425Z,13.25
2019-04-06T13:40:19.398Z,11.03
2019-04-06T13:45:29.071Z,11.60
2019-04-06T13:50:39.353Z,10.45
2019-04-06T13:58:28.171Z,11.12
2019-04-06T14:00:58.531Z,11.43
2019-04-06T14:03:28.907Z,10.08
2019-04-06T14:11:17.912Z,11.90
2019-04-06T14:13:47.958Z,10.40
2019-04-06T14:18:57.934Z,10.72
2019-04-06T14:21:28.316Z,10.95
2019-04-06T14:23:58.259Z,10.80
2019-04-06T14:26:28.347Z,11.83
2019-04-06T14:28:58.421Z,11.63
2019-04-06T14:31:30.344Z,11.15
2019-04-06T14:36:38.378Z,11.65
2019-04-06T14:41:47.817Z,10.60
2019-04-06T14:44:17.821Z,9.10
2019-04-06T14:46:48.173Z,10.05
2019-04-06T14:49:29.405Z,9.05
2019-04-06T14:54:28.053Z,9.93
2019-04-06T14:59:37.319Z,10.95
2019-04-06T15:02:07.741Z,10.15
2019-04-06T15:04:37.978Z,9.90
2019-04-06T15:07:11.491Z,10.70
2019-04-06T15:09:38.206Z,10.98
2019-04-06T15:12:08.612Z,11.22
2019-04-06T15:14:38.936Z,10.40
2019-04-06T15:17:08.951Z,11.45
2019-04-06T15:19:39.010Z,11.68
2019-04-06T15:22:09.055Z,11.97
2019-04-06T15:24:39.372Z,12.30
2019-04-06T15:27:09.395Z,13.10
2019-04-06T15:29:39.810Z,12.37
2019-04-06T15:32:09.998Z,11.68
2019-04-06T15:34:39.901Z,14.00
2019-04-06T15:37:09.929Z,15.60
2019-04-06T15:44:58.954Z,19.48
2019-04-06T15:50:08.631Z,19.62
2019-04-06T15:57:57.438Z,21.05
2019-04-06T16:00:27.766Z,20.77
2019-04-06T16:08:16.888Z,23.70
2019-04-06T16:10:46.947Z,24.50
2019-04-06T16:15:56.607Z,23.75
2019-04-06T16:18:26.984Z,24.45
2019-04-06T16:20:58.436Z,22.27
2019-04-06T16:23:26.989Z,24.27
2019-04-06T16:31:16.014Z,25.48
2019-04-06T16:33:46.077Z,25.70
2019-04-06T16:38:56.033Z,26.77
2019-04-06T16:44:05.224Z,26.50
2019-04-06T16:49:14.624Z,26.82
2019-04-06T16:54:24.545Z,28.15
2019-04-06T16:59:33.782Z,25.37
2019-04-06T17:04:42.845Z,28.62
2019-04-06T17:09:53.229Z,26.42
2019-04-06T17:17:41.974Z,26.90
2019-04-06T17:20:12.450Z,25.72
2019-04-06T17:22:42.034Z,26.75
2019-04-06T17:30:31.480Z,26.97
2019-04-06T17:33:01.620Z,27.13
2019-04-06T17:38:10.628Z,29.30
2019-04-06T17:40:41.208Z,31.82
2019-04-06T17:53:49.131Z,27.10
2019-04-06T17:56:19.188Z,25.15
2019-04-06T18:01:28.691Z,25.70
2019-04-06T18:03:59.857Z,25.60
2019-04-06T18:09:08.500Z,25.68
2019-04-06T18:14:18.980Z,25.75
2019-04-06T18:19:31.573Z,23.38
2019-04-06T18:22:01.218Z,28.00
2019-04-06T18:24:31.285Z,28.50
2019-04-06T18:29:41.064Z,26.37
2019-04-06T18:32:10.741Z,25.37
2019-04-06T18:34:41.389Z,23.32
2019-04-06T18:37:11.235Z,22.85
2019-04-06T18:39:40.985Z,22.22
2019-04-06T18:42:11.820Z,23.25
2019-04-06T18:44:41.886Z,23.75
2019-04-06T18:47:11.797Z,23.55
2019-04-06T18:49:42.412Z,22.48
2019-04-06T18:52:12.270Z,22.45
2019-04-06T18:54:42.503Z,23.65
2019-04-06T18:59:52.646Z,23.73
2019-04-06T19:02:22.570Z,23.90
2019-04-06T19:04:52.482Z,23.20
2019-04-06T19:07:22.624Z,24.87
2019-04-06T19:09:52.803Z,22.93
2019-04-06T19:12:22.834Z,20.55
2019-04-06T19:14:53.247Z,21.75
2019-04-06T19:17:23.604Z,21.82
2019-04-06T19:19:53.856Z,23.77
2019-04-06T19:22:24.007Z,24.43
2019-04-06T19:24:53.755Z,22.80
2019-04-06T19:27:23.875Z,22.48
2019-04-06T19:29:54.242Z,22.58
2019-04-06T19:32:24.278Z,21.12
2019-04-06T19:34:54.312Z,19.70
2019-04-06T19:40:03.951Z,20.92
2019-04-06T19:42:34.360Z,22.93
2019-04-06T19:45:04.585Z,23.30
2019-04-06T19:47:34.463Z,23.50
2019-04-06T19:52:44.192Z,21.37
2019-04-06T19:55:14.010Z,19.90
2019-04-06T19:57:44.121Z,18.60
2019-04-06T20:00:14.502Z,18.85
2019-04-06T20:02:44.823Z,19.27
2019-04-06T20:07:54.774Z,19.07
2019-04-06T20:10:24.836Z,18.37
2019-04-06T20:12:54.866Z,19.70
2019-04-06T20:20:45.214Z,18.32
2019-04-06T20:25:54.332Z,17.77
2019-04-06T20:28:24.673Z,17.43
2019-04-06T20:30:54.494Z,17.67
2019-04-06T20:33:24.864Z,16.65
2019-04-06T20:35:55.358Z,17.25
2019-04-06T20:38:25.274Z,18.10
2019-04-06T20:40:55.322Z,17.37
2019-04-06T20:43:25.631Z,17.20
2019-04-06T20:45:55.668Z,16.60
2019-04-06T20:48:25.773Z,15.85
2019-04-06T20:50:56.318Z,17.43
2019-04-06T20:53:26.112Z,17.45
2019-04-06T20:55:56.456Z,15.63
2019-04-06T21:01:05.609Z,15.58
2019-04-06T21:06:14.988Z,15.88
2019-04-06T21:08:45.915Z,16.52
2019-04-06T21:11:15.404Z,15.73
2019-04-06T21:16:24.834Z,14.07
2019-04-06T21:21:34.691Z,15.68
2019-04-06T21:24:04.699Z,15.47
2019-04-06T21:26:35.016Z,14.90
2019-04-06T21:31:44.742Z,15.32
2019-04-06T21:34:16.781Z,16.00
2019-04-06T21:39:24.549Z,16.00
2019-04-06T21:41:54.584Z,16.27
2019-04-06T21:44:24.633Z,15.50
2019-04-06T21:49:34.443Z,16.43
2019-04-06T21:54:43.877Z,18.80
2019-04-06T21:59:53.517Z,22.50
2019-04-06T22:02:24.092Z,22.60
2019-04-06T22:04:53.577Z,21.73
2019-04-06T22:07:24.249Z,20.53
2019-04-06T22:09:53.714Z,19.30
2019-04-06T22:12:23.932Z,18.17
2019-04-06T22:14:54.236Z,18.53
2019-04-06T22:17:24.406Z,16.07
2019-04-06T22:19:54.180Z,16.23
2019-04-06T22:22:24.820Z,16.33
2019-04-06T22:24:54.298Z,17.70
2019-04-06T22:27:24.335Z,16.37
2019-04-06T22:29:54.761Z,16.43
2019-04-06T22:32:25.538Z,17.20
2019-04-06T22:34:55.681Z,15.67
2019-04-06T22:37:25.596Z,17.13
2019-04-06T22:39:55.292Z,17.40
2019-04-06T22:42:25.322Z,16.93
2019-04-06T22:44:55.945Z,16.90
2019-04-06T22:47:25.404Z,17.03
2019-04-06T22:49:55.904Z,16.70
2019-04-06T22:52:25.489Z,16.87
2019-04-06T22:54:55.919Z,17.30
2019-04-06T22:57:26.139Z,17.30
2019-04-06T22:59:56.386Z,16.10
2019-04-06T23:02:26.232Z,17.40
2019-04-06T23:04:56.279Z,17.90
2019-04-06T23:07:27.014Z,15.67
2019-04-06T23:09:56.351Z,16.60
2019-04-06T23:12:26.749Z,17.73
2019-04-06T23:14:56.846Z,17.67
2019-04-06T23:17:27.352Z,17.40
2019-04-06T23:19:57.796Z,16.37
2019-04-06T23:22:27.638Z,18.13
2019-04-06T23:24:58.029Z,17.60
2019-04-06T23:27:28.073Z,17.63
2019-04-06T23:29:58.765Z,17.93
2019-04-06T23:32:28.125Z,17.17
2019-04-06T23:35:01.851Z,17.70
2019-04-06T23:40:08.366Z,16.67
2019-04-06T23:42:38.827Z,17.80
2019-04-06T23:45:08.375Z,15.87
2019-04-06T23:47:38.765Z,15.80
2019-04-06T23:50:08.786Z,15.17
2019-04-06T23:52:39.178Z,15.90
2019-04-06T23:55:09.480Z,15.43
2019-04-06T23:57:40.093Z,16.57
